sensor_id;sensor_type;location;lat;lon;timestamp;temperature;humidity
13892;DHT22;7016;48.172;8.058;2023-04-25T00:00:02;10.80;99.90
13892;DHT22;7016;48.172;8.058;2023-04-25T00:02:29;10.80;99.90
13892;DHT22;7016;48.172;8.058;2023-04-25T00:04:54;10.80;99.90
13892;DHT22;7016;48.172;8.058;2023-04-25T00:07:25;10.80;99.90
13892;DHT22;7016;48.172;8.058;2023-04-25T00:09:50;10.70;99.90
13892;DHT22;7016;48.172;8.058;2023-04-25T00:12:16;10.80;99.90
13892;DHT22;7016;48.172;8.058;2023-04-25T00:14:42;10.70;99.90
13892;DHT22;7016;48.172;8.058;2023-04-25T00:17:08;10.60;99.90
13892;DHT22;7016;48.172;8.058;2023-04-25T00:19:33;10.60;99.90
13892;DHT22;7016;48.172;8.058;2023-04-25T00:22:00;10.60;99.90
13892;DHT22;7016;48.172;8.058;2023-04-25T00:24:26;10.40;99.90
13892;DHT22;7016;48.172;8.058;2023-04-25T00:26:51;10.40;99.90
13892;DHT22;7016;48.172;8.058;2023-04-25T00:29:17;10.30;99.90
13892;DHT22;7016;48.172;8.058;2023-04-25T00:31:42;10.50;99.90
13892;DHT22;7016;48.172;8.058;2023-04-25T00:34:08;10.50;99.90
13892;DHT22;7016;48.172;8.058;2023-04-25T00:36:34;10.60;99.90
13892;DHT22;7016;48.172;8.058;2023-04-25T00:38:59;10.50;99.90
13892;DHT22;7016;48.172;8.058;2023-04-25T00:41:26;10.50;99.90
13892;DHT22;7016;48.172;8.058;2023-04-25T00:43:52;10.40;99.90
13892;DHT22;7016;48.172;8.058;2023-04-25T00:46:19;10.30;99.90
13892;DHT22;7016;48.172;8.058;2023-04-25T00:48:45;10.30;99.90
13892;DHT22;7016;48.172;8.058;2023-04-25T00:51:15;10.30;99.90
13892;DHT22;7016;48.172;8.058;2023-04-25T00:53:41;10.30;99.90
13892;DHT22;7016;48.172;8.058;2023-04-25T00:56:07;10.20;99.90
13892;DHT22;7016;48.172;8.058;2023-04-25T00:58:33;10.30;99.90
13892;DHT22;7016;48.172;8.058;2023-04-25T01:00:59;10.30;99.90
13892;DHT22;7016;48.172;8.058;2023-04-25T01:03:25;10.40;99.90
13892;DHT22;7016;48.172;8.058;2023-04-25T01:05:54;10.30;99.90
13892;DHT22;7016;48.172;8.058;2023-04-25T01:08:23;10.10;99.90
13892;DHT22;7016;48.172;8.058;2023-04-25T01:10:49;10.20;99.90
13892;DHT22;7016;48.172;8.058;2023-04-25T01:13:15;10.10;99.90
13892;DHT22;7016;48.172;8.058;2023-04-25T01:15:40;10.20;99.90
13892;DHT22;7016;48.172;8.058;2023-04-25T01:18:06;10.20;99.90
13892;DHT22;7016;48.172;8.058;2023-04-25T01:20:33;10.20;99.90
13892;DHT22;7016;48.172;8.058;2023-04-25T01:22:59;10.30;99.90
13892;DHT22;7016;48.172;8.058;2023-04-25T01:25:25;10.30;99.90
13892;DHT22;7016;48.172;8.058;2023-04-25T01:27:51;10.40;99.90
13892;DHT22;7016;48.172;8.058;2023-04-25T01:30:17;10.40;99.90
13892;DHT22;7016;48.172;8.058;2023-04-25T01:32:43;10.30;99.90
13892;DHT22;7016;48.172;8.058;2023-04-25T01:35:11;10.40;99.90
13892;DHT22;7016;48.172;8.058;2023-04-25T01:37:41;10.30;99.90
13892;DHT22;7016;48.172;8.058;2023-04-25T01:40:11;10.30;99.90
13892;DHT22;7016;48.172;8.058;2023-04-25T01:42:40;10.30;99.90
13892;DHT22;7016;48.172;8.058;2023-04-25T01:45:07;10.30;99.90
13892;DHT22;7016;48.172;8.058;2023-04-25T01:47:33;9.60;99.90
13892;DHT22;7016;48.172;8.058;2023-04-25T01:50:01;10.30;99.90
13892;DHT22;7016;48.172;8.058;2023-04-25T01:52:27;10.20;99.90
13892;DHT22;7016;48.172;8.058;2023-04-25T01:54:53;10.20;99.90
13892;DHT22;7016;48.172;8.058;2023-04-25T01:57:19;9.90;99.90
13892;DHT22;7016;48.172;8.058;2023-04-25T01:59:45;9.90;99.90
13892;DHT22;7016;48.172;8.058;2023-04-25T02:02:11;9.80;99.90
13892;DHT22;7016;48.172;8.058;2023-04-25T02:04:37;9.60;99.90
13892;DHT22;7016;48.172;8.058;2023-04-25T02:07:03;9.60;99.90
13892;DHT22;7016;48.172;8.058;2023-04-25T02:09:29;9.60;99.90
13892;DHT22;7016;48.172;8.058;2023-04-25T02:11:55;9.50;99.90
13892;DHT22;7016;48.172;8.058;2023-04-25T02:14:20;9.40;99.90
13892;DHT22;7016;48.172;8.058;2023-04-25T02:16:46;9.20;99.90
13892;DHT22;7016;48.172;8.058;2023-04-25T02:19:12;9.10;99.90
13892;DHT22;7016;48.172;8.058;2023-04-25T02:21:38;9.10;99.90
13892;DHT22;7016;48.172;8.058;2023-04-25T02:24:04;9.00;99.90
13892;DHT22;7016;48.172;8.058;2023-04-25T02:26:30;8.90;99.90
13892;DHT22;7016;48.172;8.058;2023-04-25T02:28:59;8.90;99.90
13892;DHT22;7016;48.172;8.058;2023-04-25T02:31:25;8.90;99.90
13892;DHT22;7016;48.172;8.058;2023-04-25T02:33:51;8.90;99.90
13892;DHT22;7016;48.172;8.058;2023-04-25T02:36:17;8.70;99.90
13892;DHT22;7016;48.172;8.058;2023-04-25T02:38:42;8.60;99.90
13892;DHT22;7016;48.172;8.058;2023-04-25T02:41:08;8.50;99.90
13892;DHT22;7016;48.172;8.058;2023-04-25T02:43:34;8.50;99.90
13892;DHT22;7016;48.172;8.058;2023-04-25T02:45:59;8.50;99.90
13892;DHT22;7016;48.172;8.058;2023-04-25T02:48:25;8.50;99.90
13892;DHT22;7016;48.172;8.058;2023-04-25T02:50:51;8.50;99.90
13892;DHT22;7016;48.172;8.058;2023-04-25T02:53:17;8.50;99.90
13892;DHT22;7016;48.172;8.058;2023-04-25T02:55:42;8.40;99.90
13892;DHT22;7016;48.172;8.058;2023-04-25T02:58:08;8.50;99.90
13892;DHT22;7016;48.172;8.058;2023-04-25T03:00:33;8.50;99.90
13892;DHT22;7016;48.172;8.058;2023-04-25T03:02:59;8.60;99.90
13892;DHT22;7016;48.172;8.058;2023-04-25T03:05:25;8.60;99.90
13892;DHT22;7016;48.172;8.058;2023-04-25T03:07:51;8.70;99.90
13892;DHT22;7016;48.172;8.058;2023-04-25T03:10:16;8.70;99.90
13892;DHT22;7016;48.172;8.058;2023-04-25T03:12:42;8.80;99.90
13892;DHT22;7016;48.172;8.058;2023-04-25T03:15:08;8.80;99.90
13892;DHT22;7016;48.172;8.058;2023-04-25T03:17:34;8.80;99.90
13892;DHT22;7016;48.172;8.058;2023-04-25T03:19:59;8.70;99.90
13892;DHT22;7016;48.172;8.058;2023-04-25T03:22:25;8.80;99.90
13892;DHT22;7016;48.172;8.058;2023-04-25T03:24:51;8.90;99.90
13892;DHT22;7016;48.172;8.058;2023-04-25T03:27:17;9.00;99.90
13892;DHT22;7016;48.172;8.058;2023-04-25T03:29:43;9.00;99.90
13892;DHT22;7016;48.172;8.058;2023-04-25T03:32:08;9.00;99.90
13892;DHT22;7016;48.172;8.058;2023-04-25T03:34:34;9.00;99.90
13892;DHT22;7016;48.172;8.058;2023-04-25T03:37:00;8.90;99.90
13892;DHT22;7016;48.172;8.058;2023-04-25T03:39:26;8.90;99.90
13892;DHT22;7016;48.172;8.058;2023-04-25T03:41:52;8.90;99.90
13892;DHT22;7016;48.172;8.058;2023-04-25T03:44:18;8.90;99.90
13892;DHT22;7016;48.172;8.058;2023-04-25T03:46:43;8.80;99.90
13892;DHT22;7016;48.172;8.058;2023-04-25T03:49:09;8.90;99.90
13892;DHT22;7016;48.172;8.058;2023-04-25T03:51:35;8.80;99.90
13892;DHT22;7016;48.172;8.058;2023-04-25T03:54:00;8.80;99.90
13892;DHT22;7016;48.172;8.058;2023-04-25T03:56:26;8.80;99.90
13892;DHT22;7016;48.172;8.058;2023-04-25T03:58:52;8.70;99.90
13892;DHT22;7016;48.172;8.058;2023-04-25T04:01:17;8.80;99.90
13892;DHT22;7016;48.172;8.058;2023-04-25T04:03:43;8.80;99.90
13892;DHT22;7016;48.172;8.058;2023-04-25T04:06:09;8.70;99.90
13892;DHT22;7016;48.172;8.058;2023-04-25T04:08:34;8.60;99.90
13892;DHT22;7016;48.172;8.058;2023-04-25T04:11:00;8.60;99.90
13892;DHT22;7016;48.172;8.058;2023-04-25T04:13:27;8.60;99.90
13892;DHT22;7016;48.172;8.058;2023-04-25T04:15:53;8.60;99.90
13892;DHT22;7016;48.172;8.058;2023-04-25T04:18:19;8.50;99.90
13892;DHT22;7016;48.172;8.058;2023-04-25T04:20:44;8.50;99.90
13892;DHT22;7016;48.172;8.058;2023-04-25T04:23:10;8.40;99.90
13892;DHT22;7016;48.172;8.058;2023-04-25T04:25:36;8.40;99.90
13892;DHT22;7016;48.172;8.058;2023-04-25T04:28:02;8.40;99.90
13892;DHT22;7016;48.172;8.058;2023-04-25T04:30:28;8.30;99.90
13892;DHT22;7016;48.172;8.058;2023-04-25T04:32:57;8.30;99.90
13892;DHT22;7016;48.172;8.058;2023-04-25T04:35:23;8.20;99.90
13892;DHT22;7016;48.172;8.058;2023-04-25T04:37:49;8.10;99.90
13892;DHT22;7016;48.172;8.058;2023-04-25T04:40:15;8.00;99.90
13892;DHT22;7016;48.172;8.058;2023-04-25T04:42:42;8.00;99.90
13892;DHT22;7016;48.172;8.058;2023-04-25T04:45:09;8.00;99.90
13892;DHT22;7016;48.172;8.058;2023-04-25T04:47:35;8.00;99.90
13892;DHT22;7016;48.172;8.058;2023-04-25T04:50:03;7.90;99.90
13892;DHT22;7016;48.172;8.058;2023-04-25T04:52:29;7.90;99.90
13892;DHT22;7016;48.172;8.058;2023-04-25T04:54:55;7.90;99.90
13892;DHT22;7016;48.172;8.058;2023-04-25T04:57:21;8.10;99.90
13892;DHT22;7016;48.172;8.058;2023-04-25T04:59:47;8.10;99.90
13892;DHT22;7016;48.172;8.058;2023-04-25T05:02:12;8.20;99.90
13892;DHT22;7016;48.172;8.058;2023-04-25T05:04:38;8.30;99.90
13892;DHT22;7016;48.172;8.058;2023-04-25T05:07:04;8.40;99.90
13892;DHT22;7016;48.172;8.058;2023-04-25T05:09:30;8.40;99.90
13892;DHT22;7016;48.172;8.058;2023-04-25T05:11:55;8.40;99.90
13892;DHT22;7016;48.172;8.058;2023-04-25T05:14:21;8.40;99.90
13892;DHT22;7016;48.172;8.058;2023-04-25T05:16:48;8.50;99.90
13892;DHT22;7016;48.172;8.058;2023-04-25T05:19:14;8.50;99.90
13892;DHT22;7016;48.172;8.058;2023-04-25T05:21:39;8.50;99.90
13892;DHT22;7016;48.172;8.058;2023-04-25T05:24:05;8.50;99.90
13892;DHT22;7016;48.172;8.058;2023-04-25T05:26:31;8.50;99.90
13892;DHT22;7016;48.172;8.058;2023-04-25T05:28:57;8.50;99.90
13892;DHT22;7016;48.172;8.058;2023-04-25T05:31:23;8.60;99.90
13892;DHT22;7016;48.172;8.058;2023-04-25T05:33:49;8.60;99.90
13892;DHT22;7016;48.172;8.058;2023-04-25T05:36:14;8.60;99.90
13892;DHT22;7016;48.172;8.058;2023-04-25T05:38:40;8.60;99.90
13892;DHT22;7016;48.172;8.058;2023-04-25T05:41:06;8.70;99.90
13892;DHT22;7016;48.172;8.058;2023-04-25T05:43:32;8.70;99.90
13892;DHT22;7016;48.172;8.058;2023-04-25T05:45:58;8.70;99.90
13892;DHT22;7016;48.172;8.058;2023-04-25T05:48:24;8.70;99.90
13892;DHT22;7016;48.172;8.058;2023-04-25T05:50:50;8.70;99.90
13892;DHT22;7016;48.172;8.058;2023-04-25T05:53:17;8.70;99.90
13892;DHT22;7016;48.172;8.058;2023-04-25T05:55:43;8.80;99.90
13892;DHT22;7016;48.172;8.058;2023-04-25T05:58:08;8.80;99.90
13892;DHT22;7016;48.172;8.058;2023-04-25T06:00:34;8.80;99.90
13892;DHT22;7016;48.172;8.058;2023-04-25T06:03:00;8.80;99.90
13892;DHT22;7016;48.172;8.058;2023-04-25T06:05:26;8.70;99.90
13892;DHT22;7016;48.172;8.058;2023-04-25T06:07:52;8.80;99.90
13892;DHT22;7016;48.172;8.058;2023-04-25T06:10:18;8.80;99.90
13892;DHT22;7016;48.172;8.058;2023-04-25T06:12:44;8.90;99.90
13892;DHT22;7016;48.172;8.058;2023-04-25T06:15:10;8.90;99.90
13892;DHT22;7016;48.172;8.058;2023-04-25T06:17:35;9.00;99.90
13892;DHT22;7016;48.172;8.058;2023-04-25T06:20:02;8.90;99.90
13892;DHT22;7016;48.172;8.058;2023-04-25T06:22:29;8.80;99.90
13892;DHT22;7016;48.172;8.058;2023-04-25T06:24:54;8.70;99.90
13892;DHT22;7016;48.172;8.058;2023-04-25T06:27:22;8.50;99.90
13892;DHT22;7016;48.172;8.058;2023-04-25T06:29:51;8.40;99.90
13892;DHT22;7016;48.172;8.058;2023-04-25T06:32:17;8.40;99.90
13892;DHT22;7016;48.172;8.058;2023-04-25T06:34:43;8.30;99.90
13892;DHT22;7016;48.172;8.058;2023-04-25T06:37:09;8.10;99.90
13892;DHT22;7016;48.172;8.058;2023-04-25T06:39:35;8.10;99.90
13892;DHT22;7016;48.172;8.058;2023-04-25T06:42:00;8.00;99.90
13892;DHT22;7016;48.172;8.058;2023-04-25T06:44:26;8.00;99.90
13892;DHT22;7016;48.172;8.058;2023-04-25T06:46:54;7.70;99.90
13892;DHT22;7016;48.172;8.058;2023-04-25T06:49:20;7.70;99.90
13892;DHT22;7016;48.172;8.058;2023-04-25T06:51:46;7.80;99.90
13892;DHT22;7016;48.172;8.058;2023-04-25T06:54:11;7.90;99.90
13892;DHT22;7016;48.172;8.058;2023-04-25T06:56:37;7.90;99.90
13892;DHT22;7016;48.172;8.058;2023-04-25T06:59:03;7.90;99.90
13892;DHT22;7016;48.172;8.058;2023-04-25T07:01:31;7.80;99.90
13892;DHT22;7016;48.172;8.058;2023-04-25T07:03:57;7.80;99.90
13892;DHT22;7016;48.172;8.058;2023-04-25T07:06:23;7.70;99.90
13892;DHT22;7016;48.172;8.058;2023-04-25T07:08:48;7.80;99.90
13892;DHT22;7016;48.172;8.058;2023-04-25T07:11:14;7.80;99.90
13892;DHT22;7016;48.172;8.058;2023-04-25T07:13:40;7.80;99.90
13892;DHT22;7016;48.172;8.058;2023-04-25T07:16:06;7.80;99.90
13892;DHT22;7016;48.172;8.058;2023-04-25T07:18:31;7.80;99.90
13892;DHT22;7016;48.172;8.058;2023-04-25T07:20:57;7.90;99.90
13892;DHT22;7016;48.172;8.058;2023-04-25T07:23:23;8.00;99.90
13892;DHT22;7016;48.172;8.058;2023-04-25T07:25:48;8.00;99.90
13892;DHT22;7016;48.172;8.058;2023-04-25T07:28:14;7.70;99.90
13892;DHT22;7016;48.172;8.058;2023-04-25T07:30:40;7.70;99.90
13892;DHT22;7016;48.172;8.058;2023-04-25T07:33:06;7.70;99.90
13892;DHT22;7016;48.172;8.058;2023-04-25T07:35:31;7.80;99.90
13892;DHT22;7016;48.172;8.058;2023-04-25T07:37:57;8.00;99.90
13892;DHT22;7016;48.172;8.058;2023-04-25T07:40:24;7.90;99.90
13892;DHT22;7016;48.172;8.058;2023-04-25T07:42:50;7.90;99.90
13892;DHT22;7016;48.172;8.058;2023-04-25T07:45:15;7.80;99.90
13892;DHT22;7016;48.172;8.058;2023-04-25T07:47:41;7.90;99.90
13892;DHT22;7016;48.172;8.058;2023-04-25T07:50:07;7.80;99.90
13892;DHT22;7016;48.172;8.058;2023-04-25T07:52:33;7.90;99.90
13892;DHT22;7016;48.172;8.058;2023-04-25T07:54:59;7.90;99.90
13892;DHT22;7016;48.172;8.058;2023-04-25T07:57:25;8.00;99.90
13892;DHT22;7016;48.172;8.058;2023-04-25T07:59:51;8.00;99.90
13892;DHT22;7016;48.172;8.058;2023-04-25T08:02:17;8.10;99.90
13892;DHT22;7016;48.172;8.058;2023-04-25T08:04:43;8.10;99.90
13892;DHT22;7016;48.172;8.058;2023-04-25T08:07:08;8.10;99.90
13892;DHT22;7016;48.172;8.058;2023-04-25T08:09:35;8.10;99.90
13892;DHT22;7016;48.172;8.058;2023-04-25T08:12:02;8.10;99.90
13892;DHT22;7016;48.172;8.058;2023-04-25T08:14:29;8.20;99.90
13892;DHT22;7016;48.172;8.058;2023-04-25T08:17:03;8.10;99.90
13892;DHT22;7016;48.172;8.058;2023-04-25T08:19:30;8.10;99.90
13892;DHT22;7016;48.172;8.058;2023-04-25T08:21:56;8.20;99.90
13892;DHT22;7016;48.172;8.058;2023-04-25T08:24:23;8.10;99.90
13892;DHT22;7016;48.172;8.058;2023-04-25T08:26:48;8.20;99.90
13892;DHT22;7016;48.172;8.058;2023-04-25T08:29:14;8.20;99.90
13892;DHT22;7016;48.172;8.058;2023-04-25T08:31:40;8.20;99.90
13892;DHT22;7016;48.172;8.058;2023-04-25T08:34:06;8.20;99.90
13892;DHT22;7016;48.172;8.058;2023-04-25T08:36:32;8.30;99.90
13892;DHT22;7016;48.172;8.058;2023-04-25T08:38:58;8.30;99.90
13892;DHT22;7016;48.172;8.058;2023-04-25T08:41:24;8.30;99.90
13892;DHT22;7016;48.172;8.058;2023-04-25T08:43:51;8.30;99.90
13892;DHT22;7016;48.172;8.058;2023-04-25T08:46:19;8.30;99.90
13892;DHT22;7016;48.172;8.058;2023-04-25T08:48:46;8.20;99.90
13892;DHT22;7016;48.172;8.058;2023-04-25T08:51:44;8.30;99.90
13892;DHT22;7016;48.172;8.058;2023-04-25T08:54:12;8.30;99.90
13892;DHT22;7016;48.172;8.058;2023-04-25T08:56:44;8.30;99.90
13892;DHT22;7016;48.172;8.058;2023-04-25T08:59:11;8.30;99.90
13892;DHT22;7016;48.172;8.058;2023-04-25T09:01:37;8.30;99.90
13892;DHT22;7016;48.172;8.058;2023-04-25T09:04:03;8.20;99.90
13892;DHT22;7016;48.172;8.058;2023-04-25T09:06:29;8.20;99.90
13892;DHT22;7016;48.172;8.058;2023-04-25T09:09:06;8.30;99.90
13892;DHT22;7016;48.172;8.058;2023-04-25T09:11:33;8.40;99.90
13892;DHT22;7016;48.172;8.058;2023-04-25T09:14:17;8.50;99.90
13892;DHT22;7016;48.172;8.058;2023-04-25T09:19:22;8.50;99.90
13892;DHT22;7016;48.172;8.058;2023-04-25T09:21:54;8.60;99.90
13892;DHT22;7016;48.172;8.058;2023-04-25T09:24:44;8.60;99.90
13892;DHT22;7016;48.172;8.058;2023-04-25T09:27:17;8.60;99.90
13892;DHT22;7016;48.172;8.058;2023-04-25T09:29:43;8.60;99.90
13892;DHT22;7016;48.172;8.058;2023-04-25T09:32:18;8.60;99.90
13892;DHT22;7016;48.172;8.058;2023-04-25T09:34:46;8.40;99.90
13892;DHT22;7016;48.172;8.058;2023-04-25T09:37:27;8.40;99.90
13892;DHT22;7016;48.172;8.058;2023-04-25T09:39:58;8.40;99.90
13892;DHT22;7016;48.172;8.058;2023-04-25T09:42:26;8.40;99.90
13892;DHT22;7016;48.172;8.058;2023-04-25T09:44:55;8.40;99.90
13892;DHT22;7016;48.172;8.058;2023-04-25T09:47:23;8.40;99.90
13892;DHT22;7016;48.172;8.058;2023-04-25T09:49:50;8.40;99.90
13892;DHT22;7016;48.172;8.058;2023-04-25T09:52:20;8.40;99.90
13892;DHT22;7016;48.172;8.058;2023-04-25T09:54:48;8.50;99.90
13892;DHT22;7016;48.172;8.058;2023-04-25T09:57:19;8.50;99.90
13892;DHT22;7016;48.172;8.058;2023-04-25T09:59:53;8.50;99.90
13892;DHT22;7016;48.172;8.058;2023-04-25T10:02:22;8.60;99.90
13892;DHT22;7016;48.172;8.058;2023-04-25T10:04:53;8.60;99.90
13892;DHT22;7016;48.172;8.058;2023-04-25T10:07:22;8.40;99.90
13892;DHT22;7016;48.172;8.058;2023-04-25T10:10:02;8.40;99.90
13892;DHT22;7016;48.172;8.058;2023-04-25T10:12:29;8.50;99.90
13892;DHT22;7016;48.172;8.058;2023-04-25T10:14:58;8.40;99.90
13892;DHT22;7016;48.172;8.058;2023-04-25T10:17:24;8.30;99.90
13892;DHT22;7016;48.172;8.058;2023-04-25T10:19:52;8.40;99.90
13892;DHT22;7016;48.172;8.058;2023-04-25T10:22:41;8.40;99.90
13892;DHT22;7016;48.172;8.058;2023-04-25T10:25:07;8.50;99.90
13892;DHT22;7016;48.172;8.058;2023-04-25T10:27:34;8.50;99.90
13892;DHT22;7016;48.172;8.058;2023-04-25T10:30:08;8.50;99.90
13892;DHT22;7016;48.172;8.058;2023-04-25T10:32:39;8.60;99.90
13892;DHT22;7016;48.172;8.058;2023-04-25T10:37:36;8.70;99.90
13892;DHT22;7016;48.172;8.058;2023-04-25T10:40:09;8.70;99.90
13892;DHT22;7016;48.172;8.058;2023-04-25T10:42:35;8.70;99.90
13892;DHT22;7016;48.172;8.058;2023-04-25T10:45:05;8.80;99.90
13892;DHT22;7016;48.172;8.058;2023-04-25T10:47:35;8.80;99.90
13892;DHT22;7016;48.172;8.058;2023-04-25T10:50:05;8.90;99.90
13892;DHT22;7016;48.172;8.058;2023-04-25T10:52:33;9.00;99.90
13892;DHT22;7016;48.172;8.058;2023-04-25T10:54:59;9.10;99.90
13892;DHT22;7016;48.172;8.058;2023-04-25T11:00:17;9.20;99.90
13892;DHT22;7016;48.172;8.058;2023-04-25T11:02:57;9.10;99.90
13892;DHT22;7016;48.172;8.058;2023-04-25T11:05:32;9.20;99.90
13892;DHT22;7016;48.172;8.058;2023-04-25T11:07:59;9.40;99.90
13892;DHT22;7016;48.172;8.058;2023-04-25T11:10:26;9.40;99.90
13892;DHT22;7016;48.172;8.058;2023-04-25T11:12:52;9.60;99.90
13892;DHT22;7016;48.172;8.058;2023-04-25T11:15:18;9.80;99.90
13892;DHT22;7016;48.172;8.058;2023-04-25T11:17:44;9.80;99.90
13892;DHT22;7016;48.172;8.058;2023-04-25T11:20:12;9.80;99.90
13892;DHT22;7016;48.172;8.058;2023-04-25T11:22:40;9.60;99.90
13892;DHT22;7016;48.172;8.058;2023-04-25T11:25:09;9.70;99.90
13892;DHT22;7016;48.172;8.058;2023-04-25T11:27:55;9.90;99.90
13892;DHT22;7016;48.172;8.058;2023-04-25T11:30:24;9.90;99.90
13892;DHT22;7016;48.172;8.058;2023-04-25T11:32:50;10.00;99.90
13892;DHT22;7016;48.172;8.058;2023-04-25T11:35:18;10.00;99.90
13892;DHT22;7016;48.172;8.058;2023-04-25T11:37:44;10.10;99.90
13892;DHT22;7016;48.172;8.058;2023-04-25T11:40:10;10.10;99.90
13892;DHT22;7016;48.172;8.058;2023-04-25T11:42:47;10.10;99.90
13892;DHT22;7016;48.172;8.058;2023-04-25T11:45:14;10.10;99.90
13892;DHT22;7016;48.172;8.058;2023-04-25T11:47:40;10.10;99.90
13892;DHT22;7016;48.172;8.058;2023-04-25T11:50:07;10.10;99.90
13892;DHT22;7016;48.172;8.058;2023-04-25T11:52:39;10.20;99.90
13892;DHT22;7016;48.172;8.058;2023-04-25T11:55:09;10.40;99.90
13892;DHT22;7016;48.172;8.058;2023-04-25T11:57:38;10.40;99.90
13892;DHT22;7016;48.172;8.058;2023-04-25T12:00:14;10.30;99.90
13892;DHT22;7016;48.172;8.058;2023-04-25T12:02:42;10.20;99.90
13892;DHT22;7016;48.172;8.058;2023-04-25T12:05:09;10.10;99.90
13892;DHT22;7016;48.172;8.058;2023-04-25T12:07:35;10.20;99.90
13892;DHT22;7016;48.172;8.058;2023-04-25T12:10:20;10.20;99.90
13892;DHT22;7016;48.172;8.058;2023-04-25T12:12:47;10.20;99.90
13892;DHT22;7016;48.172;8.058;2023-04-25T12:15:17;10.20;99.90
13892;DHT22;7016;48.172;8.058;2023-04-25T12:17:50;10.30;99.90
13892;DHT22;7016;48.172;8.058;2023-04-25T12:20:19;10.30;99.90
13892;DHT22;7016;48.172;8.058;2023-04-25T12:22:47;10.30;99.90
13892;DHT22;7016;48.172;8.058;2023-04-25T12:28:26;10.50;99.90
13892;DHT22;7016;48.172;8.058;2023-04-25T12:31:02;10.60;99.90
13892;DHT22;7016;48.172;8.058;2023-04-25T12:33:36;10.60;99.90
13892;DHT22;7016;48.172;8.058;2023-04-25T12:36:03;10.60;99.90
13892;DHT22;7016;48.172;8.058;2023-04-25T12:38:39;10.40;99.90
13892;DHT22;7016;48.172;8.058;2023-04-25T12:41:06;10.20;99.90
13892;DHT22;7016;48.172;8.058;2023-04-25T12:43:31;9.70;99.90
13892;DHT22;7016;48.172;8.058;2023-04-25T12:45:57;9.40;99.90
13892;DHT22;7016;48.172;8.058;2023-04-25T12:48:23;9.40;99.90
13892;DHT22;7016;48.172;8.058;2023-04-25T12:50:50;9.20;99.90
13892;DHT22;7016;48.172;8.058;2023-04-25T12:53:18;9.30;99.90
13892;DHT22;7016;48.172;8.058;2023-04-25T12:55:44;9.20;99.90
13892;DHT22;7016;48.172;8.058;2023-04-25T12:58:14;9.20;99.90
13892;DHT22;7016;48.172;8.058;2023-04-25T13:00:40;9.20;99.90
13892;DHT22;7016;48.172;8.058;2023-04-25T13:03:06;9.30;99.90
13892;DHT22;7016;48.172;8.058;2023-04-25T13:05:32;9.40;99.90
13892;DHT22;7016;48.172;8.058;2023-04-25T13:07:57;9.40;99.90
13892;DHT22;7016;48.172;8.058;2023-04-25T13:10:24;9.40;99.90
13892;DHT22;7016;48.172;8.058;2023-04-25T13:12:50;9.40;99.90
13892;DHT22;7016;48.172;8.058;2023-04-25T13:15:16;9.40;99.90
13892;DHT22;7016;48.172;8.058;2023-04-25T13:17:42;9.30;99.90
13892;DHT22;7016;48.172;8.058;2023-04-25T13:20:08;9.30;99.90
13892;DHT22;7016;48.172;8.058;2023-04-25T13:22:35;9.10;99.90
13892;DHT22;7016;48.172;8.058;2023-04-25T13:25:06;8.90;99.90
13892;DHT22;7016;48.172;8.058;2023-04-25T13:27:32;8.90;99.90
13892;DHT22;7016;48.172;8.058;2023-04-25T13:30:00;8.90;99.90
13892;DHT22;7016;48.172;8.058;2023-04-25T13:32:27;8.90;99.90
13892;DHT22;7016;48.172;8.058;2023-04-25T13:34:53;8.90;99.90
13892;DHT22;7016;48.172;8.058;2023-04-25T13:37:18;8.70;99.90
13892;DHT22;7016;48.172;8.058;2023-04-25T13:39:44;8.70;99.90
13892;DHT22;7016;48.172;8.058;2023-04-25T13:42:10;8.80;99.90
13892;DHT22;7016;48.172;8.058;2023-04-25T13:44:36;8.70;99.90
13892;DHT22;7016;48.172;8.058;2023-04-25T13:47:02;8.90;99.90
13892;DHT22;7016;48.172;8.058;2023-04-25T13:49:28;8.90;99.90
13892;DHT22;7016;48.172;8.058;2023-04-25T13:51:54;8.90;99.90
13892;DHT22;7016;48.172;8.058;2023-04-25T13:54:19;8.90;99.90
13892;DHT22;7016;48.172;8.058;2023-04-25T13:56:45;9.00;99.90
13892;DHT22;7016;48.172;8.058;2023-04-25T13:59:11;9.00;99.90
13892;DHT22;7016;48.172;8.058;2023-04-25T14:01:37;9.10;99.90
13892;DHT22;7016;48.172;8.058;2023-04-25T14:04:03;9.30;99.90
13892;DHT22;7016;48.172;8.058;2023-04-25T14:06:30;9.10;99.90
13892;DHT22;7016;48.172;8.058;2023-04-25T14:08:56;9.10;99.90
13892;DHT22;7016;48.172;8.058;2023-04-25T14:11:22;9.00;99.90
13892;DHT22;7016;48.172;8.058;2023-04-25T14:13:48;9.20;99.90
13892;DHT22;7016;48.172;8.058;2023-04-25T14:16:15;9.10;99.90
13892;DHT22;7016;48.172;8.058;2023-04-25T14:18:41;9.20;99.90
13892;DHT22;7016;48.172;8.058;2023-04-25T14:21:06;9.30;99.90
13892;DHT22;7016;48.172;8.058;2023-04-25T14:23:32;9.60;99.90
13892;DHT22;7016;48.172;8.058;2023-04-25T14:25:58;9.60;99.90
13892;DHT22;7016;48.172;8.058;2023-04-25T14:28:23;9.60;99.90
13892;DHT22;7016;48.172;8.058;2023-04-25T14:30:49;9.60;99.90
13892;DHT22;7016;48.172;8.058;2023-04-25T14:33:15;9.70;99.90
13892;DHT22;7016;48.172;8.058;2023-04-25T14:35:40;9.70;99.90
13892;DHT22;7016;48.172;8.058;2023-04-25T14:38:06;9.70;99.90
13892;DHT22;7016;48.172;8.058;2023-04-25T14:40:33;9.60;99.90
13892;DHT22;7016;48.172;8.058;2023-04-25T14:42:58;9.50;99.90
13892;DHT22;7016;48.172;8.058;2023-04-25T14:45:27;9.50;99.90
13892;DHT22;7016;48.172;8.058;2023-04-25T14:47:53;9.50;99.90
13892;DHT22;7016;48.172;8.058;2023-04-25T14:50:19;9.40;99.90
13892;DHT22;7016;48.172;8.058;2023-04-25T14:52:45;9.40;99.90
13892;DHT22;7016;48.172;8.058;2023-04-25T14:55:11;9.40;99.90
13892;DHT22;7016;48.172;8.058;2023-04-25T14:57:37;9.50;99.90
13892;DHT22;7016;48.172;8.058;2023-04-25T15:00:05;9.50;99.90
13892;DHT22;7016;48.172;8.058;2023-04-25T15:02:34;9.60;99.90
13892;DHT22;7016;48.172;8.058;2023-04-25T15:05:00;9.60;99.90
13892;DHT22;7016;48.172;8.058;2023-04-25T15:07:26;9.60;99.90
13892;DHT22;7016;48.172;8.058;2023-04-25T15:09:51;9.60;99.90
13892;DHT22;7016;48.172;8.058;2023-04-25T15:12:18;9.60;99.90
13892;DHT22;7016;48.172;8.058;2023-04-25T15:14:44;9.70;99.90
13892;DHT22;7016;48.172;8.058;2023-04-25T15:17:10;9.60;99.90
13892;DHT22;7016;48.172;8.058;2023-04-25T15:19:38;9.60;99.90
13892;DHT22;7016;48.172;8.058;2023-04-25T15:22:05;9.50;99.90
13892;DHT22;7016;48.172;8.058;2023-04-25T15:24:32;9.60;99.90
13892;DHT22;7016;48.172;8.058;2023-04-25T15:26:58;9.90;99.90
13892;DHT22;7016;48.172;8.058;2023-04-25T15:29:24;9.90;99.90
13892;DHT22;7016;48.172;8.058;2023-04-25T15:31:51;10.00;99.90
13892;DHT22;7016;48.172;8.058;2023-04-25T15:34:17;10.00;99.90
13892;DHT22;7016;48.172;8.058;2023-04-25T15:36:43;10.10;99.90
13892;DHT22;7016;48.172;8.058;2023-04-25T15:39:09;10.00;99.90
13892;DHT22;7016;48.172;8.058;2023-04-25T15:41:36;9.90;99.90
13892;DHT22;7016;48.172;8.058;2023-04-25T15:44:02;9.90;99.90
13892;DHT22;7016;48.172;8.058;2023-04-25T15:46:28;9.90;99.90
13892;DHT22;7016;48.172;8.058;2023-04-25T15:48:55;9.90;99.90
13892;DHT22;7016;48.172;8.058;2023-04-25T15:51:21;9.90;99.90
13892;DHT22;7016;48.172;8.058;2023-04-25T15:53:47;10.00;99.90
13892;DHT22;7016;48.172;8.058;2023-04-25T15:56:12;10.00;99.90
13892;DHT22;7016;48.172;8.058;2023-04-25T15:58:38;10.00;99.90
13892;DHT22;7016;48.172;8.058;2023-04-25T16:01:04;10.20;99.90
13892;DHT22;7016;48.172;8.058;2023-04-25T16:03:30;10.20;99.90
13892;DHT22;7016;48.172;8.058;2023-04-25T16:05:56;10.30;99.90